<?xml version="1.0" encoding="UTF-8" standalone="no" ?>
<gpx xmlns="http://www.topografix.com/GPX/1/1" xmlns:xsi="http://www.w3.org/2001/XMLSchema-instance" xsi:schemaLocation="http://www.topografix.com/GPX/1/1 http://www.topografix.com/GPX/1/1/gpx.xsd" version="1.1" creator="VisuGPX - https://www.visugpx.com">
  <metadata>
    <name>Parcey - Les Goubots</name>
    <desc><![CDATA[Randonnée effectuée le 13 novembre 2017.]]></desc>
  </metadata>
  <trk>
    <name><![CDATA[13 nov. 2017 à 09:12:51]]></name>
    <cmt><![CDATA[13 nov. 2017 à 09:12:51]]></cmt>
    <trkseg>
      <trkpt lat="47.0136" lon="5.48814">
        <ele>198</ele>
        <time>2017-11-13T08:12:51Z</time>
      </trkpt>
      <trkpt lat="47.01358" lon="5.48782">
        <ele>198</ele>
        <time>2017-11-13T08:13:07Z</time>
      </trkpt>
      <trkpt lat="47.01357" lon="5.48776">
        <ele>198</ele>
        <time>2017-11-13T08:13:10Z</time>
      </trkpt>
      <trkpt lat="47.01355" lon="5.48731">
        <ele>199</ele>
        <time>2017-11-13T08:13:33Z</time>
      </trkpt>
      <trkpt lat="47.0135" lon="5.48691">
        <ele>199</ele>
        <time>2017-11-13T08:13:53Z</time>
      </trkpt>
      <trkpt lat="47.01351" lon="5.48676">
        <ele>199</ele>
        <time>2017-11-13T08:14:00Z</time>
      </trkpt>
      <trkpt lat="47.0135" lon="5.48668">
        <ele>199</ele>
        <time>2017-11-13T08:14:04Z</time>
      </trkpt>
      <trkpt lat="47.01352" lon="5.48653">
        <ele>200</ele>
        <time>2017-11-13T08:14:11Z</time>
      </trkpt>
      <trkpt lat="47.01353" lon="5.48632">
        <ele>199</ele>
        <time>2017-11-13T08:14:21Z</time>
      </trkpt>
      <trkpt lat="47.01351" lon="5.48593">
        <ele>199</ele>
        <time>2017-11-13T08:14:42Z</time>
      </trkpt>
      <trkpt lat="47.01352" lon="5.48586">
        <ele>199</ele>
        <time>2017-11-13T08:14:45Z</time>
      </trkpt>
      <trkpt lat="47.01353" lon="5.4858">
        <ele>200</ele>
        <time>2017-11-13T08:14:48Z</time>
      </trkpt>
      <trkpt lat="47.0135" lon="5.48558">
        <ele>200</ele>
        <time>2017-11-13T08:14:58Z</time>
      </trkpt>
      <trkpt lat="47.01347" lon="5.48552">
        <ele>200</ele>
        <time>2017-11-13T08:15:01Z</time>
      </trkpt>
      <trkpt lat="47.01346" lon="5.4853">
        <ele>201</ele>
        <time>2017-11-13T08:15:13Z</time>
      </trkpt>
      <trkpt lat="47.01343" lon="5.48499">
        <ele>200</ele>
        <time>2017-11-13T08:15:29Z</time>
      </trkpt>
      <trkpt lat="47.01344" lon="5.48491">
        <ele>200</ele>
        <time>2017-11-13T08:15:33Z</time>
      </trkpt>
      <trkpt lat="47.01343" lon="5.48483">
        <ele>201</ele>
        <time>2017-11-13T08:15:37Z</time>
      </trkpt>
      <trkpt lat="47.01344" lon="5.48475">
        <ele>201</ele>
        <time>2017-11-13T08:15:41Z</time>
      </trkpt>
      <trkpt lat="47.01345" lon="5.48459">
        <ele>201</ele>
        <time>2017-11-13T08:15:49Z</time>
      </trkpt>
      <trkpt lat="47.01348" lon="5.48445">
        <ele>201</ele>
        <time>2017-11-13T08:15:56Z</time>
      </trkpt>
      <trkpt lat="47.01349" lon="5.48438">
        <ele>200</ele>
        <time>2017-11-13T08:16:00Z</time>
      </trkpt>
      <trkpt lat="47.01348" lon="5.4843">
        <ele>200</ele>
        <time>2017-11-13T08:16:04Z</time>
      </trkpt>
      <trkpt lat="47.01344" lon="5.48362">
        <ele>201</ele>
        <time>2017-11-13T08:16:38Z</time>
      </trkpt>
      <trkpt lat="47.01341" lon="5.48331">
        <ele>202</ele>
        <time>2017-11-13T08:16:54Z</time>
      </trkpt>
      <trkpt lat="47.01342" lon="5.48315">
        <ele>202</ele>
        <time>2017-11-13T08:17:02Z</time>
      </trkpt>
      <trkpt lat="47.01343" lon="5.48307">
        <ele>202</ele>
        <time>2017-11-13T08:17:06Z</time>
      </trkpt>
      <trkpt lat="47.01341" lon="5.48291">
        <ele>203</ele>
        <time>2017-11-13T08:17:14Z</time>
      </trkpt>
      <trkpt lat="47.01342" lon="5.48258">
        <ele>202</ele>
        <time>2017-11-13T08:17:30Z</time>
      </trkpt>
      <trkpt lat="47.01338" lon="5.48235">
        <ele>200</ele>
        <time>2017-11-13T08:17:42Z</time>
      </trkpt>
      <trkpt lat="47.01337" lon="5.48212">
        <ele>199</ele>
        <time>2017-11-13T08:17:54Z</time>
      </trkpt>
      <trkpt lat="47.01338" lon="5.48205">
        <ele>199</ele>
        <time>2017-11-13T08:17:58Z</time>
      </trkpt>
      <trkpt lat="47.01333" lon="5.48181">
        <ele>198</ele>
        <time>2017-11-13T08:18:10Z</time>
      </trkpt>
      <trkpt lat="47.01332" lon="5.48174">
        <ele>198</ele>
        <time>2017-11-13T08:18:14Z</time>
      </trkpt>
      <trkpt lat="47.01325" lon="5.4811">
        <ele>196</ele>
        <time>2017-11-13T08:18:46Z</time>
      </trkpt>
      <trkpt lat="47.01321" lon="5.4805">
        <ele>196</ele>
        <time>2017-11-13T08:19:18Z</time>
      </trkpt>
      <trkpt lat="47.01319" lon="5.48004">
        <ele>197</ele>
        <time>2017-11-13T08:19:42Z</time>
      </trkpt>
      <trkpt lat="47.01318" lon="5.47996">
        <ele>197</ele>
        <time>2017-11-13T08:19:46Z</time>
      </trkpt>
      <trkpt lat="47.01317" lon="5.47964">
        <ele>197</ele>
        <time>2017-11-13T08:20:02Z</time>
      </trkpt>
      <trkpt lat="47.01315" lon="5.47956">
        <ele>197</ele>
        <time>2017-11-13T08:20:06Z</time>
      </trkpt>
      <trkpt lat="47.01312" lon="5.47893">
        <ele>198</ele>
        <time>2017-11-13T08:20:38Z</time>
      </trkpt>
      <trkpt lat="47.01311" lon="5.47877">
        <ele>198</ele>
        <time>2017-11-13T08:20:46Z</time>
      </trkpt>
      <trkpt lat="47.0131" lon="5.47861">
        <ele>197</ele>
        <time>2017-11-13T08:20:54Z</time>
      </trkpt>
      <trkpt lat="47.01309" lon="5.47853">
        <ele>197</ele>
        <time>2017-11-13T08:20:58Z</time>
      </trkpt>
      <trkpt lat="47.01309" lon="5.47845">
        <ele>197</ele>
        <time>2017-11-13T08:21:02Z</time>
      </trkpt>
      <trkpt lat="47.01308" lon="5.47837">
        <ele>197</ele>
        <time>2017-11-13T08:21:06Z</time>
      </trkpt>
      <trkpt lat="47.01305" lon="5.47831">
        <ele>197</ele>
        <time>2017-11-13T08:21:10Z</time>
      </trkpt>
      <trkpt lat="47.01301" lon="5.47827">
        <ele>197</ele>
        <time>2017-11-13T08:21:14Z</time>
      </trkpt>
      <trkpt lat="47.01252" lon="5.47828">
        <ele>198</ele>
        <time>2017-11-13T08:21:48Z</time>
      </trkpt>
      <trkpt lat="47.01237" lon="5.47825">
        <ele>198</ele>
        <time>2017-11-13T08:21:59Z</time>
      </trkpt>
      <trkpt lat="47.01226" lon="5.47821">
        <ele>198</ele>
        <time>2017-11-13T08:22:07Z</time>
      </trkpt>
      <trkpt lat="47.01192" lon="5.47785">
        <ele>197</ele>
        <time>2017-11-13T08:22:39Z</time>
      </trkpt>
      <trkpt lat="47.01158" lon="5.47747">
        <ele>197</ele>
        <time>2017-11-13T08:23:11Z</time>
      </trkpt>
      <trkpt lat="47.01155" lon="5.4774">
        <ele>197</ele>
        <time>2017-11-13T08:23:15Z</time>
      </trkpt>
      <trkpt lat="47.01138" lon="5.47718">
        <ele>198</ele>
        <time>2017-11-13T08:23:31Z</time>
      </trkpt>
      <trkpt lat="47.01131" lon="5.47706">
        <ele>198</ele>
        <time>2017-11-13T08:23:38Z</time>
      </trkpt>
      <trkpt lat="47.01106" lon="5.47673">
        <ele>199</ele>
        <time>2017-11-13T08:24:03Z</time>
      </trkpt>
      <trkpt lat="47.01097" lon="5.47666">
        <ele>199</ele>
        <time>2017-11-13T08:24:11Z</time>
      </trkpt>
      <trkpt lat="47.0109" lon="5.47656">
        <ele>199</ele>
        <time>2017-11-13T08:24:18Z</time>
      </trkpt>
      <trkpt lat="47.01085" lon="5.47652">
        <ele>199</ele>
        <time>2017-11-13T08:24:22Z</time>
      </trkpt>
      <trkpt lat="47.01077" lon="5.47641">
        <ele>199</ele>
        <time>2017-11-13T08:24:30Z</time>
      </trkpt>
      <trkpt lat="47.01048" lon="5.47612">
        <ele>200</ele>
        <time>2017-11-13T08:24:55Z</time>
      </trkpt>
      <trkpt lat="47.01009" lon="5.4761">
        <ele>200</ele>
        <time>2017-11-13T08:25:13Z</time>
      </trkpt>
      <trkpt lat="47.01014" lon="5.47566">
        <ele>200</ele>
        <time>2017-11-13T08:25:23Z</time>
      </trkpt>
      <trkpt lat="47.01016" lon="5.47559">
        <ele>201</ele>
        <time>2017-11-13T08:25:27Z</time>
      </trkpt>
      <trkpt lat="47.01021" lon="5.47546">
        <ele>199</ele>
        <time>2017-11-13T08:25:34Z</time>
      </trkpt>
      <trkpt lat="47.01028" lon="5.47533">
        <ele>197</ele>
        <time>2017-11-13T08:25:42Z</time>
      </trkpt>
      <trkpt lat="47.01029" lon="5.47526">
        <ele>197</ele>
        <time>2017-11-13T08:25:45Z</time>
      </trkpt>
      <trkpt lat="47.0103" lon="5.47519">
        <ele>196</ele>
        <time>2017-11-13T08:25:49Z</time>
      </trkpt>
      <trkpt lat="47.01031" lon="5.47511">
        <ele>196</ele>
        <time>2017-11-13T08:25:53Z</time>
      </trkpt>
      <trkpt lat="47.01042" lon="5.47449">
        <ele>197</ele>
        <time>2017-11-13T08:26:25Z</time>
      </trkpt>
      <trkpt lat="47.01049" lon="5.47436">
        <ele>197</ele>
        <time>2017-11-13T08:26:33Z</time>
      </trkpt>
      <trkpt lat="47.01057" lon="5.47407">
        <ele>196</ele>
        <time>2017-11-13T08:26:49Z</time>
      </trkpt>
      <trkpt lat="47.01063" lon="5.47394">
        <ele>197</ele>
        <time>2017-11-13T08:26:57Z</time>
      </trkpt>
      <trkpt lat="47.01079" lon="5.47337">
        <ele>197</ele>
        <time>2017-11-13T08:27:29Z</time>
      </trkpt>
      <trkpt lat="47.01083" lon="5.47322">
        <ele>197</ele>
        <time>2017-11-13T08:27:37Z</time>
      </trkpt>
      <trkpt lat="47.01087" lon="5.47316">
        <ele>197</ele>
        <time>2017-11-13T08:27:41Z</time>
      </trkpt>
      <trkpt lat="47.01091" lon="5.47301">
        <ele>197</ele>
        <time>2017-11-13T08:27:49Z</time>
      </trkpt>
      <trkpt lat="47.01094" lon="5.47295">
        <ele>197</ele>
        <time>2017-11-13T08:27:53Z</time>
      </trkpt>
      <trkpt lat="47.01097" lon="5.47279">
        <ele>197</ele>
        <time>2017-11-13T08:28:01Z</time>
      </trkpt>
      <trkpt lat="47.011" lon="5.47272">
        <ele>198</ele>
        <time>2017-11-13T08:28:05Z</time>
      </trkpt>
      <trkpt lat="47.01113" lon="5.47228">
        <ele>198</ele>
        <time>2017-11-13T08:28:29Z</time>
      </trkpt>
      <trkpt lat="47.01117" lon="5.47222">
        <ele>198</ele>
        <time>2017-11-13T08:28:33Z</time>
      </trkpt>
      <trkpt lat="47.01118" lon="5.47215">
        <ele>199</ele>
        <time>2017-11-13T08:28:37Z</time>
      </trkpt>
      <trkpt lat="47.01132" lon="5.47182">
        <ele>199</ele>
        <time>2017-11-13T08:28:57Z</time>
      </trkpt>
      <trkpt lat="47.01134" lon="5.47176">
        <ele>199</ele>
        <time>2017-11-13T08:29:01Z</time>
      </trkpt>
      <trkpt lat="47.01135" lon="5.47168">
        <ele>199</ele>
        <time>2017-11-13T08:29:05Z</time>
      </trkpt>
      <trkpt lat="47.01138" lon="5.4716">
        <ele>199</ele>
        <time>2017-11-13T08:29:09Z</time>
      </trkpt>
      <trkpt lat="47.01147" lon="5.47126">
        <ele>199</ele>
        <time>2017-11-13T08:29:26Z</time>
      </trkpt>
      <trkpt lat="47.01148" lon="5.47119">
        <ele>199</ele>
        <time>2017-11-13T08:29:30Z</time>
      </trkpt>
      <trkpt lat="47.01155" lon="5.47098">
        <ele>199</ele>
        <time>2017-11-13T08:29:42Z</time>
      </trkpt>
      <trkpt lat="47.01159" lon="5.47085">
        <ele>199</ele>
        <time>2017-11-13T08:29:49Z</time>
      </trkpt>
      <trkpt lat="47.01171" lon="5.47062">
        <ele>198</ele>
        <time>2017-11-13T08:30:04Z</time>
      </trkpt>
      <trkpt lat="47.01175" lon="5.47057">
        <ele>198</ele>
        <time>2017-11-13T08:30:09Z</time>
      </trkpt>
      <trkpt lat="47.01184" lon="5.47052">
        <ele>198</ele>
        <time>2017-11-13T08:30:17Z</time>
      </trkpt>
      <trkpt lat="47.01205" lon="5.47047">
        <ele>198</ele>
        <time>2017-11-13T08:30:34Z</time>
      </trkpt>
      <trkpt lat="47.01216" lon="5.47046">
        <ele>199</ele>
        <time>2017-11-13T08:30:42Z</time>
      </trkpt>
      <trkpt lat="47.01238" lon="5.47047">
        <ele>200</ele>
        <time>2017-11-13T08:30:58Z</time>
      </trkpt>
      <trkpt lat="47.01242" lon="5.47044">
        <ele>200</ele>
        <time>2017-11-13T08:31:02Z</time>
      </trkpt>
      <trkpt lat="47.01247" lon="5.47044">
        <ele>200</ele>
        <time>2017-11-13T08:31:06Z</time>
      </trkpt>
      <trkpt lat="47.01287" lon="5.47031">
        <ele>200</ele>
        <time>2017-11-13T08:31:38Z</time>
      </trkpt>
      <trkpt lat="47.01306" lon="5.47022">
        <ele>200</ele>
        <time>2017-11-13T08:31:54Z</time>
      </trkpt>
      <trkpt lat="47.01308" lon="5.47008">
        <ele>200</ele>
        <time>2017-11-13T08:32:01Z</time>
      </trkpt>
      <trkpt lat="47.01307" lon="5.46993">
        <ele>199</ele>
        <time>2017-11-13T08:32:08Z</time>
      </trkpt>
      <trkpt lat="47.01307" lon="5.46929">
        <ele>200</ele>
        <time>2017-11-13T08:32:40Z</time>
      </trkpt>
      <trkpt lat="47.01309" lon="5.46921">
        <ele>200</ele>
        <time>2017-11-13T08:32:44Z</time>
      </trkpt>
      <trkpt lat="47.01307" lon="5.46914">
        <ele>200</ele>
        <time>2017-11-13T08:32:48Z</time>
      </trkpt>
      <trkpt lat="47.01307" lon="5.46906">
        <ele>199</ele>
        <time>2017-11-13T08:32:52Z</time>
      </trkpt>
      <trkpt lat="47.01305" lon="5.46876">
        <ele>199</ele>
        <time>2017-11-13T08:33:07Z</time>
      </trkpt>
      <trkpt lat="47.01302" lon="5.46812">
        <ele>198</ele>
        <time>2017-11-13T08:33:39Z</time>
      </trkpt>
      <trkpt lat="47.01299" lon="5.46781">
        <ele>198</ele>
        <time>2017-11-13T08:33:55Z</time>
      </trkpt>
      <trkpt lat="47.01299" lon="5.46765">
        <ele>198</ele>
        <time>2017-11-13T08:34:03Z</time>
      </trkpt>
      <trkpt lat="47.01297" lon="5.4675">
        <ele>198</ele>
        <time>2017-11-13T08:34:11Z</time>
      </trkpt>
      <trkpt lat="47.01294" lon="5.46685">
        <ele>197</ele>
        <time>2017-11-13T08:34:43Z</time>
      </trkpt>
      <trkpt lat="47.0129" lon="5.46623">
        <ele>196</ele>
        <time>2017-11-13T08:35:14Z</time>
      </trkpt>
      <trkpt lat="47.01284" lon="5.46568">
        <ele>195</ele>
        <time>2017-11-13T08:35:41Z</time>
      </trkpt>
      <trkpt lat="47.01285" lon="5.46553">
        <ele>196</ele>
        <time>2017-11-13T08:35:49Z</time>
      </trkpt>
      <trkpt lat="47.01285" lon="5.46529">
        <ele>196</ele>
        <time>2017-11-13T08:36:01Z</time>
      </trkpt>
      <trkpt lat="47.01282" lon="5.46504">
        <ele>196</ele>
        <time>2017-11-13T08:36:14Z</time>
      </trkpt>
      <trkpt lat="47.01282" lon="5.46497">
        <ele>196</ele>
        <time>2017-11-13T08:36:18Z</time>
      </trkpt>
      <trkpt lat="47.01281" lon="5.46482">
        <ele>196</ele>
        <time>2017-11-13T08:36:26Z</time>
      </trkpt>
      <trkpt lat="47.0128" lon="5.4642">
        <ele>195</ele>
        <time>2017-11-13T08:36:58Z</time>
      </trkpt>
      <trkpt lat="47.01278" lon="5.46389">
        <ele>194</ele>
        <time>2017-11-13T08:37:14Z</time>
      </trkpt>
      <trkpt lat="47.01277" lon="5.46381">
        <ele>195</ele>
        <time>2017-11-13T08:37:18Z</time>
      </trkpt>
      <trkpt lat="47.01273" lon="5.46378">
        <ele>195</ele>
        <time>2017-11-13T08:37:22Z</time>
      </trkpt>
      <trkpt lat="47.01232" lon="5.4638">
        <ele>195</ele>
        <time>2017-11-13T08:37:54Z</time>
      </trkpt>
      <trkpt lat="47.01216" lon="5.4638">
        <ele>196</ele>
        <time>2017-11-13T08:38:06Z</time>
      </trkpt>
      <trkpt lat="47.01211" lon="5.4638">
        <ele>196</ele>
        <time>2017-11-13T08:38:10Z</time>
      </trkpt>
      <trkpt lat="47.01196" lon="5.4638">
        <ele>196</ele>
        <time>2017-11-13T08:38:23Z</time>
      </trkpt>
      <trkpt lat="47.01192" lon="5.46382">
        <ele>196</ele>
        <time>2017-11-13T08:38:27Z</time>
      </trkpt>
      <trkpt lat="47.01176" lon="5.46382">
        <ele>197</ele>
        <time>2017-11-13T08:38:39Z</time>
      </trkpt>
      <trkpt lat="47.01165" lon="5.46378">
        <ele>197</ele>
        <time>2017-11-13T08:38:47Z</time>
      </trkpt>
      <trkpt lat="47.01162" lon="5.46374">
        <ele>197</ele>
        <time>2017-11-13T08:38:51Z</time>
      </trkpt>
      <trkpt lat="47.01138" lon="5.46334">
        <ele>197</ele>
        <time>2017-11-13T08:39:22Z</time>
      </trkpt>
      <trkpt lat="47.01111" lon="5.46287">
        <ele>196</ele>
        <time>2017-11-13T08:39:54Z</time>
      </trkpt>
      <trkpt lat="47.01085" lon="5.4624">
        <ele>196</ele>
        <time>2017-11-13T08:40:26Z</time>
      </trkpt>
      <trkpt lat="47.01076" lon="5.46224">
        <ele>196</ele>
        <time>2017-11-13T08:40:38Z</time>
      </trkpt>
      <trkpt lat="47.01073" lon="5.46218">
        <ele>196</ele>
        <time>2017-11-13T08:40:42Z</time>
      </trkpt>
      <trkpt lat="47.01045" lon="5.46174">
        <ele>195</ele>
        <time>2017-11-13T08:41:13Z</time>
      </trkpt>
      <trkpt lat="47.01033" lon="5.4616">
        <ele>194</ele>
        <time>2017-11-13T08:41:30Z</time>
      </trkpt>
      <trkpt lat="47.01028" lon="5.4616">
        <ele>195</ele>
        <time>2017-11-13T08:46:41Z</time>
      </trkpt>
      <trkpt lat="47.01012" lon="5.46172">
        <ele>196</ele>
        <time>2017-11-13T08:46:53Z</time>
      </trkpt>
      <trkpt lat="47.01005" lon="5.46182">
        <ele>195</ele>
        <time>2017-11-13T08:47:01Z</time>
      </trkpt>
      <trkpt lat="47.01001" lon="5.46187">
        <ele>196</ele>
        <time>2017-11-13T08:47:05Z</time>
      </trkpt>
      <trkpt lat="47.00981" lon="5.46211">
        <ele>197</ele>
        <time>2017-11-13T08:47:25Z</time>
      </trkpt>
      <trkpt lat="47.00965" lon="5.4622">
        <ele>196</ele>
        <time>2017-11-13T08:47:37Z</time>
      </trkpt>
      <trkpt lat="47.0096" lon="5.46221">
        <ele>197</ele>
        <time>2017-11-13T08:47:41Z</time>
      </trkpt>
      <trkpt lat="47.00954" lon="5.4622">
        <ele>196</ele>
        <time>2017-11-13T08:47:45Z</time>
      </trkpt>
      <trkpt lat="47.00938" lon="5.46201">
        <ele>196</ele>
        <time>2017-11-13T08:48:01Z</time>
      </trkpt>
      <trkpt lat="47.00906" lon="5.46158">
        <ele>196</ele>
        <time>2017-11-13T08:48:33Z</time>
      </trkpt>
      <trkpt lat="47.00872" lon="5.46115">
        <ele>196</ele>
        <time>2017-11-13T08:49:05Z</time>
      </trkpt>
      <trkpt lat="47.00868" lon="5.46108">
        <ele>195</ele>
        <time>2017-11-13T08:49:10Z</time>
      </trkpt>
      <trkpt lat="47.00835" lon="5.4607">
        <ele>195</ele>
        <time>2017-11-13T08:49:41Z</time>
      </trkpt>
      <trkpt lat="47.00804" lon="5.46028">
        <ele>196</ele>
        <time>2017-11-13T08:50:12Z</time>
      </trkpt>
      <trkpt lat="47.00773" lon="5.4599">
        <ele>196</ele>
        <time>2017-11-13T08:50:44Z</time>
      </trkpt>
      <trkpt lat="47.00742" lon="5.45948">
        <ele>196</ele>
        <time>2017-11-13T08:51:16Z</time>
      </trkpt>
      <trkpt lat="47.00708" lon="5.45903">
        <ele>196</ele>
        <time>2017-11-13T08:51:48Z</time>
      </trkpt>
      <trkpt lat="47.00681" lon="5.45867">
        <ele>197</ele>
        <time>2017-11-13T08:52:17Z</time>
      </trkpt>
      <trkpt lat="47.00672" lon="5.45858">
        <ele>196</ele>
        <time>2017-11-13T08:52:26Z</time>
      </trkpt>
      <trkpt lat="47.0064" lon="5.45821">
        <ele>196</ele>
        <time>2017-11-13T08:52:58Z</time>
      </trkpt>
      <trkpt lat="47.00609" lon="5.45778">
        <ele>196</ele>
        <time>2017-11-13T08:53:29Z</time>
      </trkpt>
      <trkpt lat="47.00606" lon="5.45772">
        <ele>196</ele>
        <time>2017-11-13T08:53:33Z</time>
      </trkpt>
      <trkpt lat="47.0058" lon="5.45718">
        <ele>196</ele>
        <time>2017-11-13T08:54:06Z</time>
      </trkpt>
      <trkpt lat="47.00565" lon="5.45681">
        <ele>195</ele>
        <time>2017-11-13T08:54:31Z</time>
      </trkpt>
      <trkpt lat="47.00553" lon="5.45655">
        <ele>196</ele>
        <time>2017-11-13T08:54:47Z</time>
      </trkpt>
      <trkpt lat="47.00533" lon="5.45603">
        <ele>193</ele>
        <time>2017-11-13T08:55:18Z</time>
      </trkpt>
      <trkpt lat="47.00529" lon="5.45599">
        <ele>193</ele>
        <time>2017-11-13T08:55:22Z</time>
      </trkpt>
      <trkpt lat="47.00524" lon="5.456">
        <ele>193</ele>
        <time>2017-11-13T08:55:26Z</time>
      </trkpt>
      <trkpt lat="47.00488" lon="5.45635">
        <ele>193</ele>
        <time>2017-11-13T08:55:58Z</time>
      </trkpt>
      <trkpt lat="47.00449" lon="5.45659">
        <ele>193</ele>
        <time>2017-11-13T08:56:30Z</time>
      </trkpt>
      <trkpt lat="47.00406" lon="5.45671">
        <ele>193</ele>
        <time>2017-11-13T08:57:02Z</time>
      </trkpt>
      <trkpt lat="47.00374" lon="5.45675">
        <ele>194</ele>
        <time>2017-11-13T08:57:26Z</time>
      </trkpt>
      <trkpt lat="47.00333" lon="5.45694">
        <ele>196</ele>
        <time>2017-11-13T08:57:57Z</time>
      </trkpt>
      <trkpt lat="47.00302" lon="5.45723">
        <ele>197</ele>
        <time>2017-11-13T08:58:25Z</time>
      </trkpt>
      <trkpt lat="47.00278" lon="5.45762">
        <ele>198</ele>
        <time>2017-11-13T08:58:53Z</time>
      </trkpt>
      <trkpt lat="47.00253" lon="5.45809">
        <ele>198</ele>
        <time>2017-11-13T08:59:25Z</time>
      </trkpt>
      <trkpt lat="47.00236" lon="5.45839">
        <ele>198</ele>
        <time>2017-11-13T08:59:44Z</time>
      </trkpt>
      <trkpt lat="47.00224" lon="5.45852">
        <ele>198</ele>
        <time>2017-11-13T08:59:56Z</time>
      </trkpt>
      <trkpt lat="47.00215" lon="5.45858">
        <ele>199</ele>
        <time>2017-11-13T09:00:04Z</time>
      </trkpt>
      <trkpt lat="47.00175" lon="5.45862">
        <ele>201</ele>
        <time>2017-11-13T09:00:39Z</time>
      </trkpt>
      <trkpt lat="47.00136" lon="5.45863">
        <ele>201</ele>
        <time>2017-11-13T09:01:11Z</time>
      </trkpt>
      <trkpt lat="47.00106" lon="5.45866">
        <ele>201</ele>
        <time>2017-11-13T09:01:35Z</time>
      </trkpt>
      <trkpt lat="47.00091" lon="5.4586">
        <ele>201</ele>
        <time>2017-11-13T09:01:47Z</time>
      </trkpt>
      <trkpt lat="47.00081" lon="5.45858">
        <ele>201</ele>
        <time>2017-11-13T09:01:55Z</time>
      </trkpt>
      <trkpt lat="47.00065" lon="5.45851">
        <ele>202</ele>
        <time>2017-11-13T09:02:07Z</time>
      </trkpt>
      <trkpt lat="47.00028" lon="5.45824">
        <ele>203</ele>
        <time>2017-11-13T09:02:41Z</time>
      </trkpt>
      <trkpt lat="47.00019" lon="5.45815">
        <ele>203</ele>
        <time>2017-11-13T09:02:49Z</time>
      </trkpt>
      <trkpt lat="46.99984" lon="5.45783">
        <ele>204</ele>
        <time>2017-11-13T09:03:21Z</time>
      </trkpt>
      <trkpt lat="46.9995" lon="5.4575">
        <ele>205</ele>
        <time>2017-11-13T09:03:53Z</time>
      </trkpt>
      <trkpt lat="46.99915" lon="5.4572">
        <ele>207</ele>
        <time>2017-11-13T09:04:25Z</time>
      </trkpt>
      <trkpt lat="46.99887" lon="5.45691">
        <ele>209</ele>
        <time>2017-11-13T09:04:53Z</time>
      </trkpt>
      <trkpt lat="46.99884" lon="5.45686">
        <ele>209</ele>
        <time>2017-11-13T09:04:57Z</time>
      </trkpt>
      <trkpt lat="46.99854" lon="5.45647">
        <ele>210</ele>
        <time>2017-11-13T09:05:29Z</time>
      </trkpt>
      <trkpt lat="46.99834" lon="5.45623">
        <ele>211</ele>
        <time>2017-11-13T09:05:49Z</time>
      </trkpt>
      <trkpt lat="46.99831" lon="5.45617">
        <ele>211</ele>
        <time>2017-11-13T09:05:53Z</time>
      </trkpt>
      <trkpt lat="46.99819" lon="5.45603">
        <ele>211</ele>
        <time>2017-11-13T09:06:05Z</time>
      </trkpt>
      <trkpt lat="46.99799" lon="5.4558">
        <ele>209</ele>
        <time>2017-11-13T09:06:25Z</time>
      </trkpt>
      <trkpt lat="46.99789" lon="5.45574">
        <ele>209</ele>
        <time>2017-11-13T09:06:33Z</time>
      </trkpt>
      <trkpt lat="46.99785" lon="5.45568">
        <ele>209</ele>
        <time>2017-11-13T09:06:37Z</time>
      </trkpt>
      <trkpt lat="46.99785" lon="5.4556">
        <ele>209</ele>
        <time>2017-11-13T09:06:41Z</time>
      </trkpt>
      <trkpt lat="46.99786" lon="5.45553">
        <ele>209</ele>
        <time>2017-11-13T09:06:45Z</time>
      </trkpt>
      <trkpt lat="46.99799" lon="5.4551">
        <ele>213</ele>
        <time>2017-11-13T09:07:07Z</time>
      </trkpt>
      <trkpt lat="46.99802" lon="5.45495">
        <ele>211</ele>
        <time>2017-11-13T09:07:15Z</time>
      </trkpt>
      <trkpt lat="46.99804" lon="5.45487">
        <ele>211</ele>
        <time>2017-11-13T09:07:19Z</time>
      </trkpt>
      <trkpt lat="46.99818" lon="5.45429">
        <ele>212</ele>
        <time>2017-11-13T09:07:51Z</time>
      </trkpt>
      <trkpt lat="46.99824" lon="5.45407">
        <ele>212</ele>
        <time>2017-11-13T09:08:03Z</time>
      </trkpt>
      <trkpt lat="46.99827" lon="5.45392">
        <ele>212</ele>
        <time>2017-11-13T09:08:11Z</time>
      </trkpt>
      <trkpt lat="46.99829" lon="5.45385">
        <ele>211</ele>
        <time>2017-11-13T09:08:15Z</time>
      </trkpt>
      <trkpt lat="46.99837" lon="5.45355">
        <ele>210</ele>
        <time>2017-11-13T09:08:31Z</time>
      </trkpt>
      <trkpt lat="46.99839" lon="5.45347">
        <ele>209</ele>
        <time>2017-11-13T09:08:35Z</time>
      </trkpt>
      <trkpt lat="46.99855" lon="5.45293">
        <ele>206</ele>
        <time>2017-11-13T09:09:08Z</time>
      </trkpt>
      <trkpt lat="46.99877" lon="5.45237">
        <ele>205</ele>
        <time>2017-11-13T09:09:40Z</time>
      </trkpt>
      <trkpt lat="46.99879" lon="5.4523">
        <ele>205</ele>
        <time>2017-11-13T09:09:44Z</time>
      </trkpt>
      <trkpt lat="46.99889" lon="5.45211">
        <ele>205</ele>
        <time>2017-11-13T09:09:56Z</time>
      </trkpt>
      <trkpt lat="46.999" lon="5.45193">
        <ele>205</ele>
        <time>2017-11-13T09:10:08Z</time>
      </trkpt>
      <trkpt lat="46.99903" lon="5.45186">
        <ele>205</ele>
        <time>2017-11-13T09:10:12Z</time>
      </trkpt>
      <trkpt lat="46.99906" lon="5.45172">
        <ele>204</ele>
        <time>2017-11-13T09:10:20Z</time>
      </trkpt>
      <trkpt lat="46.99931" lon="5.45119">
        <ele>203</ele>
        <time>2017-11-13T09:10:52Z</time>
      </trkpt>
      <trkpt lat="46.99958" lon="5.45065">
        <ele>203</ele>
        <time>2017-11-13T09:11:24Z</time>
      </trkpt>
      <trkpt lat="46.99964" lon="5.45051">
        <ele>202</ele>
        <time>2017-11-13T09:11:32Z</time>
      </trkpt>
      <trkpt lat="46.99968" lon="5.45047">
        <ele>202</ele>
        <time>2017-11-13T09:11:35Z</time>
      </trkpt>
      <trkpt lat="46.99971" lon="5.45041">
        <ele>202</ele>
        <time>2017-11-13T09:11:39Z</time>
      </trkpt>
      <trkpt lat="46.99975" lon="5.45034">
        <ele>202</ele>
        <time>2017-11-13T09:11:43Z</time>
      </trkpt>
      <trkpt lat="46.99994" lon="5.45008">
        <ele>200</ele>
        <time>2017-11-13T09:12:04Z</time>
      </trkpt>
      <trkpt lat="46.99997" lon="5.45002">
        <ele>200</ele>
        <time>2017-11-13T09:12:09Z</time>
      </trkpt>
      <trkpt lat="47.00001" lon="5.44997">
        <ele>200</ele>
        <time>2017-11-13T09:12:21Z</time>
      </trkpt>
      <trkpt lat="47.00008" lon="5.44985">
        <ele>199</ele>
        <time>2017-11-13T09:12:29Z</time>
      </trkpt>
      <trkpt lat="47.00009" lon="5.44978">
        <ele>198</ele>
        <time>2017-11-13T09:12:34Z</time>
      </trkpt>
      <trkpt lat="47.00013" lon="5.44973">
        <ele>198</ele>
        <time>2017-11-13T09:12:37Z</time>
      </trkpt>
      <trkpt lat="47.00011" lon="5.44975">
        <ele>199</ele>
        <time>2017-11-13T09:13:45Z</time>
      </trkpt>
      <trkpt lat="46.99998" lon="5.44997">
        <ele>198</ele>
        <time>2017-11-13T09:14:02Z</time>
      </trkpt>
      <trkpt lat="47.00001" lon="5.44997">
        <ele>199</ele>
        <time>2017-11-13T09:18:03Z</time>
      </trkpt>
      <trkpt lat="47.0001" lon="5.44977">
        <ele>198</ele>
        <time>2017-11-13T09:18:15Z</time>
      </trkpt>
      <trkpt lat="47.00027" lon="5.44919">
        <ele>196</ele>
        <time>2017-11-13T09:18:46Z</time>
      </trkpt>
      <trkpt lat="47.00034" lon="5.44898">
        <ele>195</ele>
        <time>2017-11-13T09:18:57Z</time>
      </trkpt>
      <trkpt lat="47.0005" lon="5.44838">
        <ele>195</ele>
        <time>2017-11-13T09:19:29Z</time>
      </trkpt>
      <trkpt lat="47.00067" lon="5.44788">
        <ele>196</ele>
        <time>2017-11-13T09:19:57Z</time>
      </trkpt>
      <trkpt lat="47.00081" lon="5.44766">
        <ele>196</ele>
        <time>2017-11-13T09:20:13Z</time>
      </trkpt>
      <trkpt lat="47.00088" lon="5.44746">
        <ele>195</ele>
        <time>2017-11-13T09:20:24Z</time>
      </trkpt>
      <trkpt lat="47.00095" lon="5.44715">
        <ele>195</ele>
        <time>2017-11-13T09:20:40Z</time>
      </trkpt>
      <trkpt lat="47.00103" lon="5.44654">
        <ele>195</ele>
        <time>2017-11-13T09:21:12Z</time>
      </trkpt>
      <trkpt lat="47.00108" lon="5.44624">
        <ele>195</ele>
        <time>2017-11-13T09:21:28Z</time>
      </trkpt>
      <trkpt lat="47.00123" lon="5.44568">
        <ele>195</ele>
        <time>2017-11-13T09:22:00Z</time>
      </trkpt>
      <trkpt lat="47.00138" lon="5.44513">
        <ele>196</ele>
        <time>2017-11-13T09:22:31Z</time>
      </trkpt>
      <trkpt lat="47.00154" lon="5.44458">
        <ele>195</ele>
        <time>2017-11-13T09:23:03Z</time>
      </trkpt>
      <trkpt lat="47.0016" lon="5.44439">
        <ele>195</ele>
        <time>2017-11-13T09:23:15Z</time>
      </trkpt>
      <trkpt lat="47.00186" lon="5.44386">
        <ele>196</ele>
        <time>2017-11-13T09:23:47Z</time>
      </trkpt>
      <trkpt lat="47.00209" lon="5.44335">
        <ele>196</ele>
        <time>2017-11-13T09:24:19Z</time>
      </trkpt>
      <trkpt lat="47.0022" lon="5.44311">
        <ele>196</ele>
        <time>2017-11-13T09:24:36Z</time>
      </trkpt>
      <trkpt lat="47.00225" lon="5.44304">
        <ele>196</ele>
        <time>2017-11-13T09:25:19Z</time>
      </trkpt>
      <trkpt lat="47.00227" lon="5.44296">
        <ele>196</ele>
        <time>2017-11-13T09:25:23Z</time>
      </trkpt>
      <trkpt lat="47.00233" lon="5.44284">
        <ele>195</ele>
        <time>2017-11-13T09:25:32Z</time>
      </trkpt>
      <trkpt lat="47.00236" lon="5.44278">
        <ele>195</ele>
        <time>2017-11-13T09:25:38Z</time>
      </trkpt>
      <trkpt lat="47.00239" lon="5.44272">
        <ele>196</ele>
        <time>2017-11-13T09:25:42Z</time>
      </trkpt>
      <trkpt lat="47.00242" lon="5.44267">
        <ele>196</ele>
        <time>2017-11-13T09:25:46Z</time>
      </trkpt>
      <trkpt lat="47.00248" lon="5.44246">
        <ele>195</ele>
        <time>2017-11-13T09:26:01Z</time>
      </trkpt>
      <trkpt lat="47.00247" lon="5.44238">
        <ele>195</ele>
        <time>2017-11-13T09:26:14Z</time>
      </trkpt>
      <trkpt lat="47.00254" lon="5.44233">
        <ele>195</ele>
        <time>2017-11-13T09:26:36Z</time>
      </trkpt>
      <trkpt lat="47.00258" lon="5.44228">
        <ele>196</ele>
        <time>2017-11-13T09:26:48Z</time>
      </trkpt>
      <trkpt lat="47.00263" lon="5.44236">
        <ele>196</ele>
        <time>2017-11-13T09:28:41Z</time>
      </trkpt>
      <trkpt lat="47.00266" lon="5.44242">
        <ele>198</ele>
        <time>2017-11-13T09:28:46Z</time>
      </trkpt>
      <trkpt lat="47.00273" lon="5.44253">
        <ele>198</ele>
        <time>2017-11-13T09:28:55Z</time>
      </trkpt>
      <trkpt lat="47.00287" lon="5.44273">
        <ele>198</ele>
        <time>2017-11-13T09:29:12Z</time>
      </trkpt>
      <trkpt lat="47.00291" lon="5.44279">
        <ele>198</ele>
        <time>2017-11-13T09:29:17Z</time>
      </trkpt>
      <trkpt lat="47.00295" lon="5.44284">
        <ele>198</ele>
        <time>2017-11-13T09:29:21Z</time>
      </trkpt>
      <trkpt lat="47.00299" lon="5.44288">
        <ele>198</ele>
        <time>2017-11-13T09:29:25Z</time>
      </trkpt>
      <trkpt lat="47.00304" lon="5.44285">
        <ele>198</ele>
        <time>2017-11-13T09:29:28Z</time>
      </trkpt>
      <trkpt lat="47.00338" lon="5.44251">
        <ele>197</ele>
        <time>2017-11-13T09:30:01Z</time>
      </trkpt>
      <trkpt lat="47.00349" lon="5.44235">
        <ele>197</ele>
        <time>2017-11-13T09:30:17Z</time>
      </trkpt>
      <trkpt lat="47.00354" lon="5.44237">
        <ele>197</ele>
        <time>2017-11-13T09:30:29Z</time>
      </trkpt>
      <trkpt lat="47.00357" lon="5.44233">
        <ele>197</ele>
        <time>2017-11-13T09:30:35Z</time>
      </trkpt>
      <trkpt lat="47.00362" lon="5.44243">
        <ele>196</ele>
        <time>2017-11-13T09:31:03Z</time>
      </trkpt>
      <trkpt lat="47.00364" lon="5.44249">
        <ele>195</ele>
        <time>2017-11-13T09:31:07Z</time>
      </trkpt>
      <trkpt lat="47.00371" lon="5.44261">
        <ele>195</ele>
        <time>2017-11-13T09:31:15Z</time>
      </trkpt>
      <trkpt lat="47.00375" lon="5.44265">
        <ele>194</ele>
        <time>2017-11-13T09:31:19Z</time>
      </trkpt>
      <trkpt lat="47.00377" lon="5.44271">
        <ele>194</ele>
        <time>2017-11-13T09:31:23Z</time>
      </trkpt>
      <trkpt lat="47.004" lon="5.44313">
        <ele>196</ele>
        <time>2017-11-13T09:31:51Z</time>
      </trkpt>
      <trkpt lat="47.00404" lon="5.44317">
        <ele>196</ele>
        <time>2017-11-13T09:31:55Z</time>
      </trkpt>
      <trkpt lat="47.00407" lon="5.44322">
        <ele>196</ele>
        <time>2017-11-13T09:31:59Z</time>
      </trkpt>
      <trkpt lat="47.00416" lon="5.4433">
        <ele>196</ele>
        <time>2017-11-13T09:32:07Z</time>
      </trkpt>
      <trkpt lat="47.00427" lon="5.44347">
        <ele>197</ele>
        <time>2017-11-13T09:32:19Z</time>
      </trkpt>
      <trkpt lat="47.00456" lon="5.44387">
        <ele>197</ele>
        <time>2017-11-13T09:32:50Z</time>
      </trkpt>
      <trkpt lat="47.00462" lon="5.44398">
        <ele>197</ele>
        <time>2017-11-13T09:32:56Z</time>
      </trkpt>
      <trkpt lat="47.00469" lon="5.4441">
        <ele>197</ele>
        <time>2017-11-13T09:33:04Z</time>
      </trkpt>
      <trkpt lat="47.00472" lon="5.44417">
        <ele>196</ele>
        <time>2017-11-13T09:33:08Z</time>
      </trkpt>
      <trkpt lat="47.00477" lon="5.44421">
        <ele>196</ele>
        <time>2017-11-13T09:33:12Z</time>
      </trkpt>
      <trkpt lat="47.00481" lon="5.44426">
        <ele>196</ele>
        <time>2017-11-13T09:33:16Z</time>
      </trkpt>
      <trkpt lat="47.0049" lon="5.44434">
        <ele>196</ele>
        <time>2017-11-13T09:33:24Z</time>
      </trkpt>
      <trkpt lat="47.0052" lon="5.44474">
        <ele>197</ele>
        <time>2017-11-13T09:33:56Z</time>
      </trkpt>
      <trkpt lat="47.00524" lon="5.44478">
        <ele>197</ele>
        <time>2017-11-13T09:34:00Z</time>
      </trkpt>
      <trkpt lat="47.00531" lon="5.44489">
        <ele>197</ele>
        <time>2017-11-13T09:34:08Z</time>
      </trkpt>
      <trkpt lat="47.00565" lon="5.44525">
        <ele>198</ele>
        <time>2017-11-13T09:34:40Z</time>
      </trkpt>
      <trkpt lat="47.00597" lon="5.44562">
        <ele>198</ele>
        <time>2017-11-13T09:35:12Z</time>
      </trkpt>
      <trkpt lat="47.00612" lon="5.44583">
        <ele>199</ele>
        <time>2017-11-13T09:35:28Z</time>
      </trkpt>
      <trkpt lat="47.00621" lon="5.4459">
        <ele>199</ele>
        <time>2017-11-13T09:35:36Z</time>
      </trkpt>
      <trkpt lat="47.00631" lon="5.44594">
        <ele>199</ele>
        <time>2017-11-13T09:35:44Z</time>
      </trkpt>
      <trkpt lat="47.00635" lon="5.446">
        <ele>199</ele>
        <time>2017-11-13T09:35:48Z</time>
      </trkpt>
      <trkpt lat="47.00643" lon="5.44611">
        <ele>200</ele>
        <time>2017-11-13T09:35:56Z</time>
      </trkpt>
      <trkpt lat="47.00653" lon="5.44615">
        <ele>200</ele>
        <time>2017-11-13T09:36:04Z</time>
      </trkpt>
      <trkpt lat="47.00686" lon="5.44647">
        <ele>198</ele>
        <time>2017-11-13T09:36:36Z</time>
      </trkpt>
      <trkpt lat="47.00692" lon="5.44659">
        <ele>198</ele>
        <time>2017-11-13T09:36:44Z</time>
      </trkpt>
      <trkpt lat="47.00728" lon="5.44686">
        <ele>198</ele>
        <time>2017-11-13T09:37:16Z</time>
      </trkpt>
      <trkpt lat="47.00745" lon="5.44702">
        <ele>199</ele>
        <time>2017-11-13T09:37:32Z</time>
      </trkpt>
      <trkpt lat="47.00773" lon="5.44721">
        <ele>199</ele>
        <time>2017-11-13T09:37:57Z</time>
      </trkpt>
      <trkpt lat="47.00778" lon="5.44726">
        <ele>199</ele>
        <time>2017-11-13T09:38:01Z</time>
      </trkpt>
      <trkpt lat="47.00783" lon="5.4473">
        <ele>200</ele>
        <time>2017-11-13T09:38:05Z</time>
      </trkpt>
      <trkpt lat="47.00822" lon="5.4475">
        <ele>199</ele>
        <time>2017-11-13T09:38:37Z</time>
      </trkpt>
      <trkpt lat="47.00861" lon="5.44771">
        <ele>199</ele>
        <time>2017-11-13T09:39:10Z</time>
      </trkpt>
      <trkpt lat="47.00871" lon="5.44774">
        <ele>199</ele>
        <time>2017-11-13T09:39:18Z</time>
      </trkpt>
      <trkpt lat="47.00876" lon="5.44779">
        <ele>199</ele>
        <time>2017-11-13T09:39:22Z</time>
      </trkpt>
      <trkpt lat="47.00883" lon="5.44784">
        <ele>199</ele>
        <time>2017-11-13T09:39:28Z</time>
      </trkpt>
      <trkpt lat="47.00887" lon="5.44787">
        <ele>199</ele>
        <time>2017-11-13T09:39:32Z</time>
      </trkpt>
      <trkpt lat="47.00898" lon="5.44787">
        <ele>198</ele>
        <time>2017-11-13T09:39:41Z</time>
      </trkpt>
      <trkpt lat="47.00903" lon="5.44789">
        <ele>198</ele>
        <time>2017-11-13T09:39:46Z</time>
      </trkpt>
      <trkpt lat="47.00908" lon="5.44792">
        <ele>197</ele>
        <time>2017-11-13T09:39:50Z</time>
      </trkpt>
      <trkpt lat="47.00948" lon="5.44803">
        <ele>198</ele>
        <time>2017-11-13T09:40:22Z</time>
      </trkpt>
      <trkpt lat="47.00958" lon="5.44807">
        <ele>199</ele>
        <time>2017-11-13T09:40:30Z</time>
      </trkpt>
      <trkpt lat="47.00994" lon="5.44819">
        <ele>199</ele>
        <time>2017-11-13T09:41:07Z</time>
      </trkpt>
      <trkpt lat="47.01032" lon="5.44825">
        <ele>198</ele>
        <time>2017-11-13T09:41:37Z</time>
      </trkpt>
      <trkpt lat="47.0104" lon="5.44831">
        <ele>198</ele>
        <time>2017-11-13T09:41:45Z</time>
      </trkpt>
      <trkpt lat="47.01078" lon="5.4484">
        <ele>199</ele>
        <time>2017-11-13T09:42:15Z</time>
      </trkpt>
      <trkpt lat="47.01086" lon="5.44846">
        <ele>199</ele>
        <time>2017-11-13T09:42:24Z</time>
      </trkpt>
      <trkpt lat="47.01124" lon="5.44855">
        <ele>197</ele>
        <time>2017-11-13T09:42:54Z</time>
      </trkpt>
      <trkpt lat="47.01134" lon="5.44854">
        <ele>197</ele>
        <time>2017-11-13T09:43:02Z</time>
      </trkpt>
      <trkpt lat="47.0116" lon="5.44855">
        <ele>197</ele>
        <time>2017-11-13T09:43:22Z</time>
      </trkpt>
      <trkpt lat="47.012" lon="5.44869">
        <ele>198</ele>
        <time>2017-11-13T09:43:54Z</time>
      </trkpt>
      <trkpt lat="47.0123" lon="5.44877">
        <ele>197</ele>
        <time>2017-11-13T09:44:20Z</time>
      </trkpt>
      <trkpt lat="47.01241" lon="5.44879">
        <ele>196</ele>
        <time>2017-11-13T09:44:28Z</time>
      </trkpt>
      <trkpt lat="47.0125" lon="5.44882">
        <ele>196</ele>
        <time>2017-11-13T09:44:36Z</time>
      </trkpt>
      <trkpt lat="47.0126" lon="5.44884">
        <ele>196</ele>
        <time>2017-11-13T09:44:44Z</time>
      </trkpt>
      <trkpt lat="47.01265" lon="5.44885">
        <ele>196</ele>
        <time>2017-11-13T09:44:48Z</time>
      </trkpt>
      <trkpt lat="47.01267" lon="5.44877">
        <ele>197</ele>
        <time>2017-11-13T09:45:00Z</time>
      </trkpt>
      <trkpt lat="47.01272" lon="5.44887">
        <ele>197</ele>
        <time>2017-11-13T09:45:18Z</time>
      </trkpt>
      <trkpt lat="47.01281" lon="5.44891">
        <ele>198</ele>
        <time>2017-11-13T09:45:27Z</time>
      </trkpt>
      <trkpt lat="47.01296" lon="5.44898">
        <ele>198</ele>
        <time>2017-11-13T09:45:41Z</time>
      </trkpt>
      <trkpt lat="47.01303" lon="5.44898">
        <ele>198</ele>
        <time>2017-11-13T09:46:10Z</time>
      </trkpt>
      <trkpt lat="47.01307" lon="5.44901">
        <ele>197</ele>
        <time>2017-11-13T09:46:19Z</time>
      </trkpt>
      <trkpt lat="47.0131" lon="5.44909">
        <ele>197</ele>
        <time>2017-11-13T09:46:27Z</time>
      </trkpt>
      <trkpt lat="47.01313" lon="5.44915">
        <ele>198</ele>
        <time>2017-11-13T09:46:33Z</time>
      </trkpt>
      <trkpt lat="47.01323" lon="5.44922">
        <ele>198</ele>
        <time>2017-11-13T09:46:50Z</time>
      </trkpt>
      <trkpt lat="47.0133" lon="5.44928">
        <ele>199</ele>
        <time>2017-11-13T09:47:27Z</time>
      </trkpt>
      <trkpt lat="47.01334" lon="5.44931">
        <ele>199</ele>
        <time>2017-11-13T09:47:34Z</time>
      </trkpt>
      <trkpt lat="47.01339" lon="5.44936">
        <ele>199</ele>
        <time>2017-11-13T09:47:39Z</time>
      </trkpt>
      <trkpt lat="47.01344" lon="5.44939">
        <ele>200</ele>
        <time>2017-11-13T09:47:45Z</time>
      </trkpt>
      <trkpt lat="47.01357" lon="5.44948">
        <ele>200</ele>
        <time>2017-11-13T09:47:58Z</time>
      </trkpt>
      <trkpt lat="47.01365" lon="5.44956">
        <ele>201</ele>
        <time>2017-11-13T09:48:08Z</time>
      </trkpt>
      <trkpt lat="47.01369" lon="5.44959">
        <ele>201</ele>
        <time>2017-11-13T09:48:13Z</time>
      </trkpt>
      <trkpt lat="47.01373" lon="5.44964">
        <ele>200</ele>
        <time>2017-11-13T09:48:18Z</time>
      </trkpt>
      <trkpt lat="47.01401" lon="5.45004">
        <ele>201</ele>
        <time>2017-11-13T09:48:49Z</time>
      </trkpt>
      <trkpt lat="47.01408" lon="5.45012">
        <ele>201</ele>
        <time>2017-11-13T09:48:57Z</time>
      </trkpt>
      <trkpt lat="47.01411" lon="5.45017">
        <ele>201</ele>
        <time>2017-11-13T09:49:01Z</time>
      </trkpt>
      <trkpt lat="47.0142" lon="5.45025">
        <ele>201</ele>
        <time>2017-11-13T09:49:09Z</time>
      </trkpt>
      <trkpt lat="47.01426" lon="5.45038">
        <ele>200</ele>
        <time>2017-11-13T09:49:17Z</time>
      </trkpt>
      <trkpt lat="47.01431" lon="5.4505">
        <ele>201</ele>
        <time>2017-11-13T09:49:25Z</time>
      </trkpt>
      <trkpt lat="47.01434" lon="5.45057">
        <ele>200</ele>
        <time>2017-11-13T09:49:29Z</time>
      </trkpt>
      <trkpt lat="47.01438" lon="5.45063">
        <ele>200</ele>
        <time>2017-11-13T09:49:33Z</time>
      </trkpt>
      <trkpt lat="47.01461" lon="5.45119">
        <ele>199</ele>
        <time>2017-11-13T09:50:07Z</time>
      </trkpt>
      <trkpt lat="47.01484" lon="5.45182">
        <ele>200</ele>
        <time>2017-11-13T09:50:45Z</time>
      </trkpt>
      <trkpt lat="47.01499" lon="5.45217">
        <ele>199</ele>
        <time>2017-11-13T09:51:08Z</time>
      </trkpt>
      <trkpt lat="47.01503" lon="5.45231">
        <ele>199</ele>
        <time>2017-11-13T09:51:16Z</time>
      </trkpt>
      <trkpt lat="47.01509" lon="5.45257">
        <ele>200</ele>
        <time>2017-11-13T09:51:30Z</time>
      </trkpt>
      <trkpt lat="47.01516" lon="5.45266">
        <ele>200</ele>
        <time>2017-11-13T09:51:37Z</time>
      </trkpt>
      <trkpt lat="47.01524" lon="5.45275">
        <ele>199</ele>
        <time>2017-11-13T09:51:45Z</time>
      </trkpt>
      <trkpt lat="47.01536" lon="5.45314">
        <ele>199</ele>
        <time>2017-11-13T09:52:08Z</time>
      </trkpt>
      <trkpt lat="47.0154" lon="5.45338">
        <ele>199</ele>
        <time>2017-11-13T09:52:20Z</time>
      </trkpt>
      <trkpt lat="47.01549" lon="5.45356">
        <ele>199</ele>
        <time>2017-11-13T09:52:33Z</time>
      </trkpt>
      <trkpt lat="47.01551" lon="5.4537">
        <ele>199</ele>
        <time>2017-11-13T09:52:42Z</time>
      </trkpt>
      <trkpt lat="47.01557" lon="5.45382">
        <ele>199</ele>
        <time>2017-11-13T09:52:50Z</time>
      </trkpt>
      <trkpt lat="47.01569" lon="5.45431">
        <ele>199</ele>
        <time>2017-11-13T09:53:21Z</time>
      </trkpt>
      <trkpt lat="47.01579" lon="5.45478">
        <ele>199</ele>
        <time>2017-11-13T09:53:51Z</time>
      </trkpt>
      <trkpt lat="47.0158" lon="5.45487">
        <ele>199</ele>
        <time>2017-11-13T09:53:55Z</time>
      </trkpt>
      <trkpt lat="47.01583" lon="5.45518">
        <ele>200</ele>
        <time>2017-11-13T09:54:11Z</time>
      </trkpt>
      <trkpt lat="47.01591" lon="5.45573">
        <ele>200</ele>
        <time>2017-11-13T09:54:41Z</time>
      </trkpt>
      <trkpt lat="47.01596" lon="5.45585">
        <ele>199</ele>
        <time>2017-11-13T09:54:48Z</time>
      </trkpt>
      <trkpt lat="47.01608" lon="5.4564">
        <ele>199</ele>
        <time>2017-11-13T09:55:22Z</time>
      </trkpt>
      <trkpt lat="47.0161" lon="5.45647">
        <ele>199</ele>
        <time>2017-11-13T09:55:26Z</time>
      </trkpt>
      <trkpt lat="47.01616" lon="5.45667">
        <ele>199</ele>
        <time>2017-11-13T09:55:38Z</time>
      </trkpt>
      <trkpt lat="47.01617" lon="5.45682">
        <ele>199</ele>
        <time>2017-11-13T09:55:44Z</time>
      </trkpt>
      <trkpt lat="47.01618" lon="5.45689">
        <ele>199</ele>
        <time>2017-11-13T09:55:48Z</time>
      </trkpt>
      <trkpt lat="47.01621" lon="5.45741">
        <ele>199</ele>
        <time>2017-11-13T09:56:18Z</time>
      </trkpt>
      <trkpt lat="47.01626" lon="5.45754">
        <ele>199</ele>
        <time>2017-11-13T09:56:30Z</time>
      </trkpt>
      <trkpt lat="47.01627" lon="5.45762">
        <ele>199</ele>
        <time>2017-11-13T09:56:34Z</time>
      </trkpt>
      <trkpt lat="47.01628" lon="5.45769">
        <ele>199</ele>
        <time>2017-11-13T09:56:38Z</time>
      </trkpt>
      <trkpt lat="47.01629" lon="5.45777">
        <ele>200</ele>
        <time>2017-11-13T09:56:43Z</time>
      </trkpt>
      <trkpt lat="47.01627" lon="5.45783">
        <ele>200</ele>
        <time>2017-11-13T09:56:53Z</time>
      </trkpt>
      <trkpt lat="47.01628" lon="5.4579">
        <ele>200</ele>
        <time>2017-11-13T09:56:57Z</time>
      </trkpt>
      <trkpt lat="47.01636" lon="5.458">
        <ele>200</ele>
        <time>2017-11-13T09:57:06Z</time>
      </trkpt>
      <trkpt lat="47.01637" lon="5.45807">
        <ele>200</ele>
        <time>2017-11-13T09:57:10Z</time>
      </trkpt>
      <trkpt lat="47.01637" lon="5.45814">
        <ele>200</ele>
        <time>2017-11-13T09:57:14Z</time>
      </trkpt>
      <trkpt lat="47.01639" lon="5.45875">
        <ele>201</ele>
        <time>2017-11-13T09:57:49Z</time>
      </trkpt>
      <trkpt lat="47.01642" lon="5.45888">
        <ele>201</ele>
        <time>2017-11-13T09:58:00Z</time>
      </trkpt>
      <trkpt lat="47.01642" lon="5.45902">
        <ele>201</ele>
        <time>2017-11-13T09:58:08Z</time>
      </trkpt>
      <trkpt lat="47.01643" lon="5.45916">
        <ele>201</ele>
        <time>2017-11-13T09:58:16Z</time>
      </trkpt>
      <trkpt lat="47.01641" lon="5.4593">
        <ele>201</ele>
        <time>2017-11-13T09:58:23Z</time>
      </trkpt>
      <trkpt lat="47.01644" lon="5.45944">
        <ele>200</ele>
        <time>2017-11-13T09:58:31Z</time>
      </trkpt>
      <trkpt lat="47.01644" lon="5.45957">
        <ele>200</ele>
        <time>2017-11-13T09:58:38Z</time>
      </trkpt>
      <trkpt lat="47.01648" lon="5.46027">
        <ele>201</ele>
        <time>2017-11-13T09:59:15Z</time>
      </trkpt>
      <trkpt lat="47.0165" lon="5.4604">
        <ele>201</ele>
        <time>2017-11-13T09:59:22Z</time>
      </trkpt>
      <trkpt lat="47.01651" lon="5.46067">
        <ele>200</ele>
        <time>2017-11-13T09:59:36Z</time>
      </trkpt>
      <trkpt lat="47.01647" lon="5.46121">
        <ele>201</ele>
        <time>2017-11-13T10:00:11Z</time>
      </trkpt>
      <trkpt lat="47.01647" lon="5.46148">
        <ele>201</ele>
        <time>2017-11-13T10:00:25Z</time>
      </trkpt>
      <trkpt lat="47.01642" lon="5.46175">
        <ele>201</ele>
        <time>2017-11-13T10:00:40Z</time>
      </trkpt>
      <trkpt lat="47.01644" lon="5.46243">
        <ele>202</ele>
        <time>2017-11-13T10:01:18Z</time>
      </trkpt>
      <trkpt lat="47.01639" lon="5.46278">
        <ele>201</ele>
        <time>2017-11-13T10:01:36Z</time>
      </trkpt>
      <trkpt lat="47.0164" lon="5.46285">
        <ele>201</ele>
        <time>2017-11-13T10:01:41Z</time>
      </trkpt>
      <trkpt lat="47.01639" lon="5.46301">
        <ele>200</ele>
        <time>2017-11-13T10:01:49Z</time>
      </trkpt>
      <trkpt lat="47.0164" lon="5.46316">
        <ele>200</ele>
        <time>2017-11-13T10:01:57Z</time>
      </trkpt>
      <trkpt lat="47.01639" lon="5.4633">
        <ele>201</ele>
        <time>2017-11-13T10:02:04Z</time>
      </trkpt>
      <trkpt lat="47.01635" lon="5.46369">
        <ele>200</ele>
        <time>2017-11-13T10:02:25Z</time>
      </trkpt>
      <trkpt lat="47.01636" lon="5.46413">
        <ele>200</ele>
        <time>2017-11-13T10:02:48Z</time>
      </trkpt>
      <trkpt lat="47.01633" lon="5.46458">
        <ele>201</ele>
        <time>2017-11-13T10:03:13Z</time>
      </trkpt>
      <trkpt lat="47.01633" lon="5.46499">
        <ele>201</ele>
        <time>2017-11-13T10:03:35Z</time>
      </trkpt>
      <trkpt lat="47.01631" lon="5.46512">
        <ele>201</ele>
        <time>2017-11-13T10:03:42Z</time>
      </trkpt>
      <trkpt lat="47.01633" lon="5.46526">
        <ele>200</ele>
        <time>2017-11-13T10:03:49Z</time>
      </trkpt>
      <trkpt lat="47.01633" lon="5.4654">
        <ele>200</ele>
        <time>2017-11-13T10:03:56Z</time>
      </trkpt>
      <trkpt lat="47.01633" lon="5.46554">
        <ele>201</ele>
        <time>2017-11-13T10:04:05Z</time>
      </trkpt>
      <trkpt lat="47.01635" lon="5.46561">
        <ele>200</ele>
        <time>2017-11-13T10:04:18Z</time>
      </trkpt>
      <trkpt lat="47.01632" lon="5.4656">
        <ele>200</ele>
        <time>2017-11-13T10:08:12Z</time>
      </trkpt>
      <trkpt lat="47.01632" lon="5.46568">
        <ele>198</ele>
        <time>2017-11-13T10:08:16Z</time>
      </trkpt>
      <trkpt lat="47.01632" lon="5.46576">
        <ele>198</ele>
        <time>2017-11-13T10:08:20Z</time>
      </trkpt>
      <trkpt lat="47.01628" lon="5.46634">
        <ele>199</ele>
        <time>2017-11-13T10:08:51Z</time>
      </trkpt>
      <trkpt lat="47.01626" lon="5.46673">
        <ele>198</ele>
        <time>2017-11-13T10:09:10Z</time>
      </trkpt>
      <trkpt lat="47.01626" lon="5.4668">
        <ele>198</ele>
        <time>2017-11-13T10:09:14Z</time>
      </trkpt>
      <trkpt lat="47.01626" lon="5.46687">
        <ele>198</ele>
        <time>2017-11-13T10:09:18Z</time>
      </trkpt>
      <trkpt lat="47.01622" lon="5.4674">
        <ele>198</ele>
        <time>2017-11-13T10:09:49Z</time>
      </trkpt>
      <trkpt lat="47.01623" lon="5.46754">
        <ele>199</ele>
        <time>2017-11-13T10:09:55Z</time>
      </trkpt>
      <trkpt lat="47.01623" lon="5.46761">
        <ele>199</ele>
        <time>2017-11-13T10:09:59Z</time>
      </trkpt>
      <trkpt lat="47.01623" lon="5.46768">
        <ele>199</ele>
        <time>2017-11-13T10:10:03Z</time>
      </trkpt>
      <trkpt lat="47.01623" lon="5.46776">
        <ele>200</ele>
        <time>2017-11-13T10:10:07Z</time>
      </trkpt>
      <trkpt lat="47.01623" lon="5.46785">
        <ele>200</ele>
        <time>2017-11-13T10:10:12Z</time>
      </trkpt>
      <trkpt lat="47.01619" lon="5.46808">
        <ele>200</ele>
        <time>2017-11-13T10:10:24Z</time>
      </trkpt>
      <trkpt lat="47.01619" lon="5.46815">
        <ele>200</ele>
        <time>2017-11-13T10:10:28Z</time>
      </trkpt>
      <trkpt lat="47.01622" lon="5.46822">
        <ele>200</ele>
        <time>2017-11-13T10:10:32Z</time>
      </trkpt>
      <trkpt lat="47.01622" lon="5.46837">
        <ele>200</ele>
        <time>2017-11-13T10:10:40Z</time>
      </trkpt>
      <trkpt lat="47.01618" lon="5.46851">
        <ele>200</ele>
        <time>2017-11-13T10:10:47Z</time>
      </trkpt>
      <trkpt lat="47.01617" lon="5.46865">
        <ele>200</ele>
        <time>2017-11-13T10:10:53Z</time>
      </trkpt>
      <trkpt lat="47.0162" lon="5.46872">
        <ele>200</ele>
        <time>2017-11-13T10:10:58Z</time>
      </trkpt>
      <trkpt lat="47.01618" lon="5.46888">
        <ele>200</ele>
        <time>2017-11-13T10:11:08Z</time>
      </trkpt>
      <trkpt lat="47.01619" lon="5.46895">
        <ele>199</ele>
        <time>2017-11-13T10:11:11Z</time>
      </trkpt>
      <trkpt lat="47.01616" lon="5.46917">
        <ele>199</ele>
        <time>2017-11-13T10:11:23Z</time>
      </trkpt>
      <trkpt lat="47.01614" lon="5.46924">
        <ele>199</ele>
        <time>2017-11-13T10:11:28Z</time>
      </trkpt>
      <trkpt lat="47.01615" lon="5.46932">
        <ele>199</ele>
        <time>2017-11-13T10:11:34Z</time>
      </trkpt>
      <trkpt lat="47.01613" lon="5.46938">
        <ele>199</ele>
        <time>2017-11-13T10:11:39Z</time>
      </trkpt>
      <trkpt lat="47.01622" lon="5.46967">
        <ele>198</ele>
        <time>2017-11-13T10:11:55Z</time>
      </trkpt>
      <trkpt lat="47.0162" lon="5.4698">
        <ele>198</ele>
        <time>2017-11-13T10:11:59Z</time>
      </trkpt>
      <trkpt lat="47.01616" lon="5.46992">
        <ele>198</ele>
        <time>2017-11-13T10:12:04Z</time>
      </trkpt>
      <trkpt lat="47.01613" lon="5.47034">
        <ele>199</ele>
        <time>2017-11-13T10:12:29Z</time>
      </trkpt>
      <trkpt lat="47.01613" lon="5.47048">
        <ele>199</ele>
        <time>2017-11-13T10:12:37Z</time>
      </trkpt>
      <trkpt lat="47.01608" lon="5.47107">
        <ele>199</ele>
        <time>2017-11-13T10:13:11Z</time>
      </trkpt>
      <trkpt lat="47.01606" lon="5.47167">
        <ele>200</ele>
        <time>2017-11-13T10:13:44Z</time>
      </trkpt>
      <trkpt lat="47.01607" lon="5.47174">
        <ele>200</ele>
        <time>2017-11-13T10:13:48Z</time>
      </trkpt>
      <trkpt lat="47.01607" lon="5.47181">
        <ele>200</ele>
        <time>2017-11-13T10:13:52Z</time>
      </trkpt>
      <trkpt lat="47.01607" lon="5.47188">
        <ele>200</ele>
        <time>2017-11-13T10:13:56Z</time>
      </trkpt>
      <trkpt lat="47.01606" lon="5.47194">
        <ele>200</ele>
        <time>2017-11-13T10:13:59Z</time>
      </trkpt>
      <trkpt lat="47.01606" lon="5.47202">
        <ele>200</ele>
        <time>2017-11-13T10:14:03Z</time>
      </trkpt>
      <trkpt lat="47.01606" lon="5.47261">
        <ele>200</ele>
        <time>2017-11-13T10:14:35Z</time>
      </trkpt>
      <trkpt lat="47.01605" lon="5.47268">
        <ele>201</ele>
        <time>2017-11-13T10:14:39Z</time>
      </trkpt>
      <trkpt lat="47.01602" lon="5.47283">
        <ele>200</ele>
        <time>2017-11-13T10:14:49Z</time>
      </trkpt>
      <trkpt lat="47.01604" lon="5.47289">
        <ele>200</ele>
        <time>2017-11-13T10:14:53Z</time>
      </trkpt>
      <trkpt lat="47.01602" lon="5.4731">
        <ele>199</ele>
        <time>2017-11-13T10:15:05Z</time>
      </trkpt>
      <trkpt lat="47.016" lon="5.47316">
        <ele>199</ele>
        <time>2017-11-13T10:15:10Z</time>
      </trkpt>
      <trkpt lat="47.016" lon="5.47324">
        <ele>199</ele>
        <time>2017-11-13T10:15:15Z</time>
      </trkpt>
      <trkpt lat="47.01599" lon="5.47332">
        <ele>200</ele>
        <time>2017-11-13T10:15:19Z</time>
      </trkpt>
      <trkpt lat="47.01601" lon="5.47339">
        <ele>200</ele>
        <time>2017-11-13T10:15:22Z</time>
      </trkpt>
      <trkpt lat="47.016" lon="5.47348">
        <ele>200</ele>
        <time>2017-11-13T10:15:26Z</time>
      </trkpt>
      <trkpt lat="47.01598" lon="5.47355">
        <ele>200</ele>
        <time>2017-11-13T10:15:30Z</time>
      </trkpt>
      <trkpt lat="47.01598" lon="5.47391">
        <ele>201</ele>
        <time>2017-11-13T10:15:52Z</time>
      </trkpt>
      <trkpt lat="47.01594" lon="5.47449">
        <ele>201</ele>
        <time>2017-11-13T10:16:23Z</time>
      </trkpt>
      <trkpt lat="47.01594" lon="5.47478">
        <ele>200</ele>
        <time>2017-11-13T10:16:41Z</time>
      </trkpt>
      <trkpt lat="47.01595" lon="5.47484">
        <ele>200</ele>
        <time>2017-11-13T10:16:46Z</time>
      </trkpt>
      <trkpt lat="47.01592" lon="5.47505">
        <ele>200</ele>
        <time>2017-11-13T10:16:59Z</time>
      </trkpt>
      <trkpt lat="47.01592" lon="5.47512">
        <ele>200</ele>
        <time>2017-11-13T10:17:03Z</time>
      </trkpt>
      <trkpt lat="47.01594" lon="5.47527">
        <ele>200</ele>
        <time>2017-11-13T10:17:12Z</time>
      </trkpt>
      <trkpt lat="47.01593" lon="5.47549">
        <ele>199</ele>
        <time>2017-11-13T10:17:24Z</time>
      </trkpt>
      <trkpt lat="47.01588" lon="5.47562">
        <ele>200</ele>
        <time>2017-11-13T10:17:32Z</time>
      </trkpt>
      <trkpt lat="47.01588" lon="5.47569">
        <ele>200</ele>
        <time>2017-11-13T10:17:36Z</time>
      </trkpt>
      <trkpt lat="47.01588" lon="5.47585">
        <ele>199</ele>
        <time>2017-11-13T10:17:44Z</time>
      </trkpt>
      <trkpt lat="47.0159" lon="5.47593">
        <ele>199</ele>
        <time>2017-11-13T10:17:48Z</time>
      </trkpt>
      <trkpt lat="47.01591" lon="5.47601">
        <ele>198</ele>
        <time>2017-11-13T10:17:52Z</time>
      </trkpt>
      <trkpt lat="47.01589" lon="5.47609">
        <ele>198</ele>
        <time>2017-11-13T10:17:56Z</time>
      </trkpt>
      <trkpt lat="47.01588" lon="5.47616">
        <ele>198</ele>
        <time>2017-11-13T10:18:00Z</time>
      </trkpt>
      <trkpt lat="47.0159" lon="5.47627">
        <ele>197</ele>
        <time>2017-11-13T10:18:11Z</time>
      </trkpt>
      <trkpt lat="47.01588" lon="5.47634">
        <ele>197</ele>
        <time>2017-11-13T10:18:15Z</time>
      </trkpt>
      <trkpt lat="47.01588" lon="5.47641">
        <ele>198</ele>
        <time>2017-11-13T10:18:19Z</time>
      </trkpt>
      <trkpt lat="47.01583" lon="5.4767">
        <ele>197</ele>
        <time>2017-11-13T10:18:36Z</time>
      </trkpt>
      <trkpt lat="47.01579" lon="5.47684">
        <ele>197</ele>
        <time>2017-11-13T10:18:44Z</time>
      </trkpt>
      <trkpt lat="47.01578" lon="5.47703">
        <ele>197</ele>
        <time>2017-11-13T10:19:08Z</time>
      </trkpt>
      <trkpt lat="47.01575" lon="5.47703">
        <ele>198</ele>
        <time>2017-11-13T10:20:44Z</time>
      </trkpt>
      <trkpt lat="47.01575" lon="5.47696">
        <ele>198</ele>
        <time>2017-11-13T10:20:49Z</time>
      </trkpt>
      <trkpt lat="47.01573" lon="5.47689">
        <ele>197</ele>
        <time>2017-11-13T10:20:55Z</time>
      </trkpt>
      <trkpt lat="47.0157" lon="5.47682">
        <ele>196</ele>
        <time>2017-11-13T10:21:00Z</time>
      </trkpt>
      <trkpt lat="47.01568" lon="5.47694">
        <ele>196</ele>
        <time>2017-11-13T10:21:54Z</time>
      </trkpt>
      <trkpt lat="47.01567" lon="5.47715">
        <ele>196</ele>
        <time>2017-11-13T10:22:06Z</time>
      </trkpt>
      <trkpt lat="47.01565" lon="5.47744">
        <ele>195</ele>
        <time>2017-11-13T10:22:23Z</time>
      </trkpt>
      <trkpt lat="47.01553" lon="5.478">
        <ele>197</ele>
        <time>2017-11-13T10:22:57Z</time>
      </trkpt>
      <trkpt lat="47.01543" lon="5.4785">
        <ele>197</ele>
        <time>2017-11-13T10:23:28Z</time>
      </trkpt>
      <trkpt lat="47.01542" lon="5.47857">
        <ele>197</ele>
        <time>2017-11-13T10:23:32Z</time>
      </trkpt>
      <trkpt lat="47.01538" lon="5.4787">
        <ele>196</ele>
        <time>2017-11-13T10:23:39Z</time>
      </trkpt>
      <trkpt lat="47.01534" lon="5.47893">
        <ele>196</ele>
        <time>2017-11-13T10:23:51Z</time>
      </trkpt>
      <trkpt lat="47.01527" lon="5.4793">
        <ele>197</ele>
        <time>2017-11-13T10:24:12Z</time>
      </trkpt>
      <trkpt lat="47.01524" lon="5.47937">
        <ele>197</ele>
        <time>2017-11-13T10:24:16Z</time>
      </trkpt>
      <trkpt lat="47.0152" lon="5.47943">
        <ele>198</ele>
        <time>2017-11-13T10:24:21Z</time>
      </trkpt>
      <trkpt lat="47.01517" lon="5.47958">
        <ele>199</ele>
        <time>2017-11-13T10:24:29Z</time>
      </trkpt>
      <trkpt lat="47.01514" lon="5.47962">
        <ele>199</ele>
        <time>2017-11-13T10:24:33Z</time>
      </trkpt>
      <trkpt lat="47.0151" lon="5.47976">
        <ele>199</ele>
        <time>2017-11-13T10:24:40Z</time>
      </trkpt>
      <trkpt lat="47.01497" lon="5.47999">
        <ele>199</ele>
        <time>2017-11-13T10:24:55Z</time>
      </trkpt>
      <trkpt lat="47.01489" lon="5.48024">
        <ele>199</ele>
        <time>2017-11-13T10:25:10Z</time>
      </trkpt>
      <trkpt lat="47.01486" lon="5.48029">
        <ele>199</ele>
        <time>2017-11-13T10:25:14Z</time>
      </trkpt>
      <trkpt lat="47.01471" lon="5.48068">
        <ele>199</ele>
        <time>2017-11-13T10:25:40Z</time>
      </trkpt>
      <trkpt lat="47.01469" lon="5.48082">
        <ele>198</ele>
        <time>2017-11-13T10:25:48Z</time>
      </trkpt>
      <trkpt lat="47.01464" lon="5.48094">
        <ele>198</ele>
        <time>2017-11-13T10:25:56Z</time>
      </trkpt>
      <trkpt lat="47.01462" lon="5.48102">
        <ele>198</ele>
        <time>2017-11-13T10:26:00Z</time>
      </trkpt>
      <trkpt lat="47.01453" lon="5.48127">
        <ele>197</ele>
        <time>2017-11-13T10:26:16Z</time>
      </trkpt>
      <trkpt lat="47.01442" lon="5.48161">
        <ele>198</ele>
        <time>2017-11-13T10:26:37Z</time>
      </trkpt>
      <trkpt lat="47.01439" lon="5.48168">
        <ele>198</ele>
        <time>2017-11-13T10:26:41Z</time>
      </trkpt>
      <trkpt lat="47.01436" lon="5.48184">
        <ele>199</ele>
        <time>2017-11-13T10:26:49Z</time>
      </trkpt>
      <trkpt lat="47.01428" lon="5.48206">
        <ele>199</ele>
        <time>2017-11-13T10:27:02Z</time>
      </trkpt>
      <trkpt lat="47.01423" lon="5.48227">
        <ele>199</ele>
        <time>2017-11-13T10:27:15Z</time>
      </trkpt>
      <trkpt lat="47.01415" lon="5.48246">
        <ele>199</ele>
        <time>2017-11-13T10:27:28Z</time>
      </trkpt>
      <trkpt lat="47.01411" lon="5.48251">
        <ele>199</ele>
        <time>2017-11-13T10:27:32Z</time>
      </trkpt>
      <trkpt lat="47.01409" lon="5.48257">
        <ele>199</ele>
        <time>2017-11-13T10:27:36Z</time>
      </trkpt>
      <trkpt lat="47.01403" lon="5.48269">
        <ele>199</ele>
        <time>2017-11-13T10:27:44Z</time>
      </trkpt>
      <trkpt lat="47.01402" lon="5.48285">
        <ele>199</ele>
        <time>2017-11-13T10:27:52Z</time>
      </trkpt>
      <trkpt lat="47.014" lon="5.48291">
        <ele>199</ele>
        <time>2017-11-13T10:27:56Z</time>
      </trkpt>
      <trkpt lat="47.01396" lon="5.48295">
        <ele>199</ele>
        <time>2017-11-13T10:28:00Z</time>
      </trkpt>
      <trkpt lat="47.01393" lon="5.48301">
        <ele>199</ele>
        <time>2017-11-13T10:28:05Z</time>
      </trkpt>
      <trkpt lat="47.01387" lon="5.48323">
        <ele>199</ele>
        <time>2017-11-13T10:28:18Z</time>
      </trkpt>
      <trkpt lat="47.01381" lon="5.48334">
        <ele>199</ele>
        <time>2017-11-13T10:28:26Z</time>
      </trkpt>
      <trkpt lat="47.01379" lon="5.48349">
        <ele>199</ele>
        <time>2017-11-13T10:28:34Z</time>
      </trkpt>
      <trkpt lat="47.01377" lon="5.48356">
        <ele>199</ele>
        <time>2017-11-13T10:28:39Z</time>
      </trkpt>
      <trkpt lat="47.01368" lon="5.48382">
        <ele>199</ele>
        <time>2017-11-13T10:28:55Z</time>
      </trkpt>
      <trkpt lat="47.01359" lon="5.48391">
        <ele>200</ele>
        <time>2017-11-13T10:29:04Z</time>
      </trkpt>
      <trkpt lat="47.01353" lon="5.48403">
        <ele>200</ele>
        <time>2017-11-13T10:29:12Z</time>
      </trkpt>
      <trkpt lat="47.01351" lon="5.48417">
        <ele>200</ele>
        <time>2017-11-13T10:29:20Z</time>
      </trkpt>
      <trkpt lat="47.01344" lon="5.48437">
        <ele>199</ele>
        <time>2017-11-13T10:29:35Z</time>
      </trkpt>
      <trkpt lat="47.01343" lon="5.48453">
        <ele>199</ele>
        <time>2017-11-13T10:30:09Z</time>
      </trkpt>
      <trkpt lat="47.0134" lon="5.48473">
        <ele>200</ele>
        <time>2017-11-13T10:30:21Z</time>
      </trkpt>
      <trkpt lat="47.0134" lon="5.48532">
        <ele>200</ele>
        <time>2017-11-13T10:30:54Z</time>
      </trkpt>
      <trkpt lat="47.01341" lon="5.48555">
        <ele>200</ele>
        <time>2017-11-13T10:31:06Z</time>
      </trkpt>
      <trkpt lat="47.01343" lon="5.48615">
        <ele>200</ele>
        <time>2017-11-13T10:31:38Z</time>
      </trkpt>
      <trkpt lat="47.01348" lon="5.48677">
        <ele>200</ele>
        <time>2017-11-13T10:32:11Z</time>
      </trkpt>
      <trkpt lat="47.0135" lon="5.48741">
        <ele>200</ele>
        <time>2017-11-13T10:32:43Z</time>
      </trkpt>
      <trkpt lat="47.01353" lon="5.48802">
        <ele>201</ele>
        <time>2017-11-13T10:33:15Z</time>
      </trkpt>
      <trkpt lat="47.01357" lon="5.4886">
        <ele>202</ele>
        <time>2017-11-13T10:33:47Z</time>
      </trkpt>
      <trkpt lat="47.01357" lon="5.48891">
        <ele>202</ele>
        <time>2017-11-13T10:34:03Z</time>
      </trkpt>
      <trkpt lat="47.01363" lon="5.4895">
        <ele>201</ele>
        <time>2017-11-13T10:34:35Z</time>
      </trkpt>
      <trkpt lat="47.01365" lon="5.49003">
        <ele>202</ele>
        <time>2017-11-13T10:35:03Z</time>
      </trkpt>
      <trkpt lat="47.01365" lon="5.49019">
        <ele>202</ele>
        <time>2017-11-13T10:35:12Z</time>
      </trkpt>
      <trkpt lat="47.01375" lon="5.49078">
        <ele>202</ele>
        <time>2017-11-13T10:35:46Z</time>
      </trkpt>
      <trkpt lat="47.01379" lon="5.49092">
        <ele>201</ele>
        <time>2017-11-13T10:35:55Z</time>
      </trkpt>
      <trkpt lat="47.0138" lon="5.49106">
        <ele>201</ele>
        <time>2017-11-13T10:36:03Z</time>
      </trkpt>
      <trkpt lat="47.01382" lon="5.49113">
        <ele>201</ele>
        <time>2017-11-13T10:36:19Z</time>
      </trkpt>
      <trkpt lat="47.01384" lon="5.4912">
        <ele>201</ele>
        <time>2017-11-13T10:36:31Z</time>
      </trkpt>
      <trkpt lat="47.01386" lon="5.49128">
        <ele>201</ele>
        <time>2017-11-13T10:36:35Z</time>
      </trkpt>
      <trkpt lat="47.01395" lon="5.49164">
        <ele>201</ele>
        <time>2017-11-13T10:36:55Z</time>
      </trkpt>
      <trkpt lat="47.01396" lon="5.49178">
        <ele>200</ele>
        <time>2017-11-13T10:37:03Z</time>
      </trkpt>
      <trkpt lat="47.014" lon="5.49199">
        <ele>200</ele>
        <time>2017-11-13T10:37:15Z</time>
      </trkpt>
      <trkpt lat="47.01403" lon="5.49205">
        <ele>200</ele>
        <time>2017-11-13T10:37:20Z</time>
      </trkpt>
      <trkpt lat="47.01408" lon="5.49234">
        <ele>200</ele>
        <time>2017-11-13T10:37:36Z</time>
      </trkpt>
      <trkpt lat="47.0141" lon="5.49258">
        <ele>200</ele>
        <time>2017-11-13T10:37:48Z</time>
      </trkpt>
      <trkpt lat="47.01415" lon="5.49318">
        <ele>200</ele>
        <time>2017-11-13T10:38:21Z</time>
      </trkpt>
      <trkpt lat="47.01416" lon="5.49326">
        <ele>201</ele>
        <time>2017-11-13T10:38:25Z</time>
      </trkpt>
      <trkpt lat="47.01417" lon="5.49334">
        <ele>201</ele>
        <time>2017-11-13T10:38:29Z</time>
      </trkpt>
      <trkpt lat="47.01419" lon="5.49341">
        <ele>200</ele>
        <time>2017-11-13T10:38:34Z</time>
      </trkpt>
    </trkseg>
  </trk>
</gpx>